Scroll down
FLIGHT INFORMATION
Southwest Airlines

SWA1368

At Arrival Gate

KDEN
 KMSP
DATE: 2021-05-27
GATE: C45
GATE DEPARTURE: 21:43
TAKEOFF: 21:54
DATE: 2021-05-27
GATE: F7
LANDING: 23:19
GATE ARRIVAL: 23:26
FLIGHT DATA
Crew: 
Speed: 
458 kts
Altitude: 
37,013 ft
Stage Length: 
589.8 nm
Block Time: 
1.6 hrs
Flight Time: 
1.4 hrs
Fuel Used: 
8,197 lb
Cleared Route: KDEN CHUWY KD75A SSWAN KMSP
TRACK DATA
50,000 ft 1,000 kts
AIRCRAFT INFO AND CUMULATIVE STATS
Aircraft Type: 
B737BW
Registration: 
SELCAL: 
MSN/LN: 
32474 / 1545
Operator: 
Total Flights: 
5
Total Block Time: 
11 hrs
Total Flight Time: 
10.1 hrs
Total Fuel Used: 
56,700 lb
DATALINK LOG | Newest first | Current as of: 2022-09-25 18:43:06
LABEL SEQUENCE CONTENT Dn/Up
5Z283327 MAY 21 23:27:42z / FLT DECK GOOD / ACF POS GOOD / GRND SERVICES GOOD / MAINT GOOD▼ Dn
QD273223:26 7.3▼ Dn
QC202723:19▼ Dn
GA1129GATE F7▲ Up
GR1119KMSP 23:19 MAAS 00 YP/UM 01/00 WCHR/S/C 00/00/00 HI-VAL NO DIPL/VIP NO▼ Dn
2U5513KMSP 272230Z 07011G21KT 7SM SCT014 OVC023 07/06 A3016 RMK AO2 PK WND 08030/2206 RAE29 P0001 T00670056▲ Up
2S5604KMSP▼ Dn
QB560621:54▼ Dn
QA445521:43 15.6▼ Dn
2U2717KDEN 272053Z VRB05KT 10SM SCT080 22/05 A3010 RMK AO2 SLP133 T02170050 56016▲ Up
2S2839KDEN▼ Dn
A32437CLEARED TO KMSP VIA CHUWY1 CHUWY KD75A SSWAN TORGY3. SQUAWK 3167.▲ Up
Q02334[LINK ACK]▲ Up
Q02334[LINK TEST]▼ Dn


AIRCRAFT HISTORY
FLIGHT DATE FLIGHT NO. ORIGIN DESTINATION CLEARED ROUTE BLOCK TIME FLIGHT TIME FUEL USED PILOT
2021-09-30SWA1663KPHX KONT KPHX HRRBR PHRED KONT1.2 hrs0.9 hrs5,668 lbAlex K.
2021-09-01SWA901KMSP KPHX KMSP SCHEP OTG KP78E KP66C KD54A KK45Y FTI ABQ ZUN KPHX3.1 hrs2.9 hrs17,108 lbAlex K.
2021-05-27SWA1368KDEN KMSP KDEN CHUWY KD75A SSWAN KMSP1.6 hrs1.4 hrs8,197 lbJames W.
2021-02-18SWA2785KTPA KDEN KTPA SIMMR CHRGE REMIS ROZZI NAITE REDFN FATSO HRV SWB EIC IFI KIISS KDEN3.7 hrs3.5 hrs18,750 lbAnton Vind
2021-02-16SWA3498KATL KTPA KATL LUCKK HONID HEVVN KTPA1.4 hrs1.2 hrs6,977 lbAnton Vind